sensor_id;sensor_type;location;lat;lon;timestamp;P1;durP1;ratioP1;P2;durP2;ratioP2
6354;SDS011;3210;48.708;9.030;2022-12-28T00:02:20;6.13;;;3.40;;
6354;SDS011;3210;48.708;9.030;2022-12-28T00:04:47;10.03;;;3.67;;
6354;SDS011;3210;48.708;9.030;2022-12-28T00:07:13;6.50;;;3.37;;
6354;SDS011;3210;48.708;9.030;2022-12-28T00:09:40;6.13;;;3.43;;
6354;SDS011;3210;48.708;9.030;2022-12-28T00:12:09;5.90;;;4.10;;
6354;SDS011;3210;48.708;9.030;2022-12-28T00:14:35;9.13;;;4.00;;
6354;SDS011;3210;48.708;9.030;2022-12-28T00:17:02;4.50;;;3.67;;
6354;SDS011;3210;48.708;9.030;2022-12-28T00:19:29;7.50;;;4.00;;
6354;SDS011;3210;48.708;9.030;2022-12-28T00:21:56;3.30;;;3.00;;
6354;SDS011;3210;48.708;9.030;2022-12-28T00:24:23;6.40;;;3.90;;
6354;SDS011;3210;48.708;9.030;2022-12-28T00:26:50;4.50;;;4.10;;
6354;SDS011;3210;48.708;9.030;2022-12-28T00:29:22;5.53;;;3.73;;
6354;SDS011;3210;48.708;9.030;2022-12-28T00:31:49;6.07;;;3.47;;
6354;SDS011;3210;48.708;9.030;2022-12-28T00:34:15;8.50;;;4.20;;
6354;SDS011;3210;48.708;9.030;2022-12-28T00:36:42;3.87;;;2.90;;
6354;SDS011;3210;48.708;9.030;2022-12-28T00:39:09;3.97;;;2.87;;
6354;SDS011;3210;48.708;9.030;2022-12-28T00:41:36;3.83;;;3.30;;
6354;SDS011;3210;48.708;9.030;2022-12-28T00:44:02;7.87;;;2.80;;
6354;SDS011;3210;48.708;9.030;2022-12-28T00:46:31;3.73;;;3.23;;
6354;SDS011;3210;48.708;9.030;2022-12-28T00:48:58;4.13;;;3.27;;
6354;SDS011;3210;48.708;9.030;2022-12-28T00:51:24;4.53;;;2.97;;
6354;SDS011;3210;48.708;9.030;2022-12-28T00:53:51;6.93;;;3.50;;
6354;SDS011;3210;48.708;9.030;2022-12-28T00:56:19;4.80;;;3.10;;
6354;SDS011;3210;48.708;9.030;2022-12-28T00:58:47;7.50;;;3.20;;
6354;SDS011;3210;48.708;9.030;2022-12-28T01:01:15;4.80;;;3.27;;
6354;SDS011;3210;48.708;9.030;2022-12-28T01:03:44;3.23;;;2.83;;
6354;SDS011;3210;48.708;9.030;2022-12-28T01:06:12;6.33;;;3.77;;
6354;SDS011;3210;48.708;9.030;2022-12-28T01:08:40;3.50;;;3.10;;
6354;SDS011;3210;48.708;9.030;2022-12-28T01:11:07;4.20;;;2.40;;
6354;SDS011;3210;48.708;9.030;2022-12-28T01:13:35;6.27;;;3.13;;
6354;SDS011;3210;48.708;9.030;2022-12-28T01:16:08;5.23;;;3.10;;
6354;SDS011;3210;48.708;9.030;2022-12-28T01:18:36;4.47;;;2.50;;
6354;SDS011;3210;48.708;9.030;2022-12-28T01:21:08;3.77;;;2.93;;
6354;SDS011;3210;48.708;9.030;2022-12-28T01:23:36;6.90;;;2.60;;
6354;SDS011;3210;48.708;9.030;2022-12-28T01:26:03;3.70;;;2.73;;
6354;SDS011;3210;48.708;9.030;2022-12-28T01:28:30;4.13;;;2.63;;
6354;SDS011;3210;48.708;9.030;2022-12-28T01:31:01;8.93;;;3.20;;
6354;SDS011;3210;48.708;9.030;2022-12-28T01:33:29;3.50;;;2.10;;
6354;SDS011;3210;48.708;9.030;2022-12-28T01:35:56;4.73;;;2.50;;
6354;SDS011;3210;48.708;9.030;2022-12-28T01:38:24;3.90;;;2.60;;
6354;SDS011;3210;48.708;9.030;2022-12-28T01:40:51;5.07;;;2.80;;
6354;SDS011;3210;48.708;9.030;2022-12-28T01:43:17;11.90;;;3.00;;
6354;SDS011;3210;48.708;9.030;2022-12-28T01:45:46;6.80;;;2.83;;
6354;SDS011;3210;48.708;9.030;2022-12-28T01:48:17;5.67;;;1.77;;
6354;SDS011;3210;48.708;9.030;2022-12-28T01:50:49;2.50;;;1.87;;
6354;SDS011;3210;48.708;9.030;2022-12-28T01:53:17;2.67;;;2.30;;
6354;SDS011;3210;48.708;9.030;2022-12-28T01:55:47;2.53;;;2.33;;
6354;SDS011;3210;48.708;9.030;2022-12-28T01:58:15;6.87;;;3.00;;
6354;SDS011;3210;48.708;9.030;2022-12-28T02:00:45;2.43;;;2.23;;
6354;SDS011;3210;48.708;9.030;2022-12-28T02:03:13;3.90;;;2.00;;
6354;SDS011;3210;48.708;9.030;2022-12-28T02:05:44;2.60;;;2.40;;
6354;SDS011;3210;48.708;9.030;2022-12-28T02:08:16;2.03;;;1.87;;
6354;SDS011;3210;48.708;9.030;2022-12-28T02:10:48;2.13;;;1.80;;
6354;SDS011;3210;48.708;9.030;2022-12-28T02:13:17;3.50;;;2.00;;
6354;SDS011;3210;48.708;9.030;2022-12-28T02:15:46;4.10;;;2.00;;
6354;SDS011;3210;48.708;9.030;2022-12-28T02:18:13;4.60;;;2.47;;
6354;SDS011;3210;48.708;9.030;2022-12-28T02:20:45;4.03;;;2.07;;
6354;SDS011;3210;48.708;9.030;2022-12-28T02:23:33;1.90;;;1.70;;
6354;SDS011;3210;48.708;9.030;2022-12-28T02:29:10;1.60;;;1.50;;
6354;SDS011;3210;48.708;9.030;2022-12-28T02:32:07;5.93;;;1.60;;
6354;SDS011;3210;48.708;9.030;2022-12-28T02:34:46;1.63;;;1.53;;
6354;SDS011;3210;48.708;9.030;2022-12-28T02:37:19;3.57;;;1.73;;
6354;SDS011;3210;48.708;9.030;2022-12-28T02:39:50;2.57;;;1.50;;
6354;SDS011;3210;48.708;9.030;2022-12-28T02:42:21;2.20;;;1.90;;
6354;SDS011;3210;48.708;9.030;2022-12-28T02:44:51;1.70;;;1.60;;
6354;SDS011;3210;48.708;9.030;2022-12-28T02:47:36;2.00;;;1.30;;
6354;SDS011;3210;48.708;9.030;2022-12-28T02:50:23;2.60;;;1.73;;
6354;SDS011;3210;48.708;9.030;2022-12-28T02:53:11;1.60;;;1.40;;
6354;SDS011;3210;48.708;9.030;2022-12-28T02:55:58;1.70;;;1.60;;
6354;SDS011;3210;48.708;9.030;2022-12-28T02:58:52;1.40;;;1.30;;
6354;SDS011;3210;48.708;9.030;2022-12-28T03:01:50;2.37;;;1.53;;
6354;SDS011;3210;48.708;9.030;2022-12-28T03:04:40;1.23;;;1.03;;
6354;SDS011;3210;48.708;9.030;2022-12-28T03:07:24;2.20;;;1.43;;
6354;SDS011;3210;48.708;9.030;2022-12-28T03:10:13;5.57;;;1.63;;
6354;SDS011;3210;48.708;9.030;2022-12-28T03:12:47;1.87;;;1.60;;
6354;SDS011;3210;48.708;9.030;2022-12-28T03:15:23;2.63;;;1.80;;
6354;SDS011;3210;48.708;9.030;2022-12-28T03:18:00;3.23;;;1.30;;
6354;SDS011;3210;48.708;9.030;2022-12-28T03:20:51;3.93;;;1.33;;
6354;SDS011;3210;48.708;9.030;2022-12-28T03:23:38;1.50;;;1.30;;
6354;SDS011;3210;48.708;9.030;2022-12-28T03:26:24;2.03;;;1.40;;
6354;SDS011;3210;48.708;9.030;2022-12-28T03:29:12;2.50;;;1.33;;
6354;SDS011;3210;48.708;9.030;2022-12-28T03:31:59;3.37;;;1.77;;
6354;SDS011;3210;48.708;9.030;2022-12-28T03:34:27;1.93;;;1.10;;
6354;SDS011;3210;48.708;9.030;2022-12-28T03:36:56;1.57;;;1.00;;
6354;SDS011;3210;48.708;9.030;2022-12-28T03:39:31;2.37;;;1.97;;
6354;SDS011;3210;48.708;9.030;2022-12-28T03:42:04;2.70;;;1.20;;
6354;SDS011;3210;48.708;9.030;2022-12-28T03:44:56;4.77;;;1.77;;
6354;SDS011;3210;48.708;9.030;2022-12-28T03:47:29;1.67;;;1.30;;
6354;SDS011;3210;48.708;9.030;2022-12-28T03:50:00;1.47;;;1.37;;
6354;SDS011;3210;48.708;9.030;2022-12-28T03:52:27;1.83;;;1.10;;
6354;SDS011;3210;48.708;9.030;2022-12-28T03:54:54;4.87;;;1.70;;
6354;SDS011;3210;48.708;9.030;2022-12-28T03:57:21;2.57;;;1.50;;
6354;SDS011;3210;48.708;9.030;2022-12-28T03:59:48;1.70;;;1.47;;
6354;SDS011;3210;48.708;9.030;2022-12-28T04:02:15;2.03;;;1.83;;
6354;SDS011;3210;48.708;9.030;2022-12-28T04:04:41;1.70;;;1.30;;
6354;SDS011;3210;48.708;9.030;2022-12-28T04:07:10;1.77;;;1.10;;
6354;SDS011;3210;48.708;9.030;2022-12-28T04:09:36;2.00;;;1.90;;
6354;SDS011;3210;48.708;9.030;2022-12-28T04:12:03;2.03;;;1.20;;
6354;SDS011;3210;48.708;9.030;2022-12-28T04:14:31;3.83;;;0.93;;
6354;SDS011;3210;48.708;9.030;2022-12-28T04:16:58;5.17;;;1.57;;
6354;SDS011;3210;48.708;9.030;2022-12-28T04:19:24;2.30;;;1.10;;
6354;SDS011;3210;48.708;9.030;2022-12-28T04:21:51;1.50;;;1.40;;
6354;SDS011;3210;48.708;9.030;2022-12-28T04:24:19;2.23;;;1.27;;
6354;SDS011;3210;48.708;9.030;2022-12-28T04:26:46;1.40;;;1.30;;
6354;SDS011;3210;48.708;9.030;2022-12-28T04:29:13;3.87;;;1.60;;
6354;SDS011;3210;48.708;9.030;2022-12-28T04:31:40;1.70;;;1.20;;
6354;SDS011;3210;48.708;9.030;2022-12-28T04:34:06;3.00;;;1.13;;
6354;SDS011;3210;48.708;9.030;2022-12-28T04:36:33;1.60;;;1.43;;
6354;SDS011;3210;48.708;9.030;2022-12-28T04:39:00;2.80;;;0.90;;
6354;SDS011;3210;48.708;9.030;2022-12-28T04:41:28;2.17;;;1.30;;
6354;SDS011;3210;48.708;9.030;2022-12-28T04:43:55;1.10;;;1.00;;
6354;SDS011;3210;48.708;9.030;2022-12-28T04:46:22;2.03;;;1.27;;
6354;SDS011;3210;48.708;9.030;2022-12-28T04:48:49;1.93;;;1.00;;
6354;SDS011;3210;48.708;9.030;2022-12-28T04:51:17;2.23;;;1.10;;
6354;SDS011;3210;48.708;9.030;2022-12-28T04:53:45;1.97;;;1.03;;
6354;SDS011;3210;48.708;9.030;2022-12-28T04:56:12;2.27;;;1.03;;
6354;SDS011;3210;48.708;9.030;2022-12-28T04:58:41;5.40;;;1.47;;
6354;SDS011;3210;48.708;9.030;2022-12-28T05:01:09;2.07;;;1.10;;
6354;SDS011;3210;48.708;9.030;2022-12-28T05:03:37;2.97;;;1.60;;
6354;SDS011;3210;48.708;9.030;2022-12-28T05:06:06;2.30;;;1.57;;
6354;SDS011;3210;48.708;9.030;2022-12-28T05:08:36;3.70;;;1.13;;
6354;SDS011;3210;48.708;9.030;2022-12-28T05:11:03;1.73;;;1.40;;
6354;SDS011;3210;48.708;9.030;2022-12-28T05:13:31;2.20;;;1.57;;
6354;SDS011;3210;48.708;9.030;2022-12-28T05:16:00;1.53;;;1.13;;
6354;SDS011;3210;48.708;9.030;2022-12-28T05:18:27;1.93;;;1.20;;
6354;SDS011;3210;48.708;9.030;2022-12-28T05:20:57;0.93;;;0.63;;
6354;SDS011;3210;48.708;9.030;2022-12-28T05:23:26;1.00;;;0.90;;
6354;SDS011;3210;48.708;9.030;2022-12-28T05:25:53;2.90;;;1.40;;
6354;SDS011;3210;48.708;9.030;2022-12-28T05:28:20;2.77;;;0.80;;
6354;SDS011;3210;48.708;9.030;2022-12-28T05:30:47;2.57;;;1.10;;
6354;SDS011;3210;48.708;9.030;2022-12-28T05:33:15;1.77;;;1.00;;
6354;SDS011;3210;48.708;9.030;2022-12-28T05:35:42;3.20;;;1.50;;
6354;SDS011;3210;48.708;9.030;2022-12-28T05:38:09;1.17;;;0.80;;
6354;SDS011;3210;48.708;9.030;2022-12-28T05:40:36;4.50;;;1.20;;
6354;SDS011;3210;48.708;9.030;2022-12-28T05:43:03;2.33;;;1.17;;
6354;SDS011;3210;48.708;9.030;2022-12-28T05:45:29;1.00;;;0.90;;
6354;SDS011;3210;48.708;9.030;2022-12-28T05:47:56;0.90;;;0.70;;
6354;SDS011;3210;48.708;9.030;2022-12-28T05:50:24;2.63;;;2.17;;
6354;SDS011;3210;48.708;9.030;2022-12-28T05:52:51;1.67;;;1.20;;
6354;SDS011;3210;48.708;9.030;2022-12-28T05:55:18;2.10;;;1.17;;
6354;SDS011;3210;48.708;9.030;2022-12-28T05:57:44;5.80;;;1.27;;
6354;SDS011;3210;48.708;9.030;2022-12-28T06:00:11;1.27;;;0.97;;
6354;SDS011;3210;48.708;9.030;2022-12-28T06:02:39;1.30;;;1.13;;
6354;SDS011;3210;48.708;9.030;2022-12-28T06:05:06;1.57;;;1.00;;
6354;SDS011;3210;48.708;9.030;2022-12-28T06:07:35;2.17;;;1.10;;
6354;SDS011;3210;48.708;9.030;2022-12-28T06:10:02;3.30;;;0.93;;
6354;SDS011;3210;48.708;9.030;2022-12-28T06:12:29;4.03;;;0.80;;
6354;SDS011;3210;48.708;9.030;2022-12-28T06:14:56;17.33;;;2.20;;
6354;SDS011;3210;48.708;9.030;2022-12-28T06:17:23;1.40;;;1.30;;
6354;SDS011;3210;48.708;9.030;2022-12-28T06:19:50;2.27;;;1.20;;
6354;SDS011;3210;48.708;9.030;2022-12-28T06:22:16;1.97;;;0.90;;
6354;SDS011;3210;48.708;9.030;2022-12-28T06:24:44;0.80;;;0.77;;
6354;SDS011;3210;48.708;9.030;2022-12-28T06:27:11;4.27;;;1.40;;
6354;SDS011;3210;48.708;9.030;2022-12-28T06:29:38;3.60;;;1.30;;
6354;SDS011;3210;48.708;9.030;2022-12-28T06:32:05;3.10;;;1.00;;
6354;SDS011;3210;48.708;9.030;2022-12-28T06:34:31;2.80;;;0.90;;
6354;SDS011;3210;48.708;9.030;2022-12-28T06:36:58;2.80;;;1.23;;
6354;SDS011;3210;48.708;9.030;2022-12-28T06:39:25;1.80;;;1.10;;
6354;SDS011;3210;48.708;9.030;2022-12-28T06:41:53;4.63;;;1.20;;
6354;SDS011;3210;48.708;9.030;2022-12-28T06:44:20;3.33;;;0.90;;
6354;SDS011;3210;48.708;9.030;2022-12-28T06:46:46;1.43;;;1.27;;
6354;SDS011;3210;48.708;9.030;2022-12-28T06:49:13;4.37;;;1.77;;
6354;SDS011;3210;48.708;9.030;2022-12-28T06:51:40;2.63;;;1.33;;
6354;SDS011;3210;48.708;9.030;2022-12-28T06:54:07;3.67;;;1.70;;
6354;SDS011;3210;48.708;9.030;2022-12-28T06:56:35;3.00;;;1.47;;
6354;SDS011;3210;48.708;9.030;2022-12-28T06:59:03;2.27;;;1.37;;
6354;SDS011;3210;48.708;9.030;2022-12-28T07:01:31;1.63;;;1.40;;
6354;SDS011;3210;48.708;9.030;2022-12-28T07:03:59;3.50;;;1.90;;
6354;SDS011;3210;48.708;9.030;2022-12-28T07:06:27;3.37;;;1.20;;
6354;SDS011;3210;48.708;9.030;2022-12-28T07:08:58;1.83;;;1.47;;
6354;SDS011;3210;48.708;9.030;2022-12-28T07:11:25;1.40;;;1.00;;
6354;SDS011;3210;48.708;9.030;2022-12-28T07:13:53;4.80;;;2.10;;
6354;SDS011;3210;48.708;9.030;2022-12-28T07:16:22;1.63;;;1.53;;
6354;SDS011;3210;48.708;9.030;2022-12-28T07:18:49;2.23;;;1.80;;
6354;SDS011;3210;48.708;9.030;2022-12-28T07:21:17;3.63;;;2.00;;
6354;SDS011;3210;48.708;9.030;2022-12-28T07:23:45;3.20;;;1.63;;
6354;SDS011;3210;48.708;9.030;2022-12-28T07:26:13;1.77;;;1.67;;
6354;SDS011;3210;48.708;9.030;2022-12-28T07:28:41;7.53;;;1.80;;
6354;SDS011;3210;48.708;9.030;2022-12-28T07:31:10;2.00;;;1.60;;
6354;SDS011;3210;48.708;9.030;2022-12-28T07:33:40;2.93;;;2.10;;
6354;SDS011;3210;48.708;9.030;2022-12-28T07:36:07;2.87;;;1.50;;
6354;SDS011;3210;48.708;9.030;2022-12-28T07:38:35;1.70;;;1.23;;
6354;SDS011;3210;48.708;9.030;2022-12-28T07:41:02;1.67;;;1.50;;
6354;SDS011;3210;48.708;9.030;2022-12-28T07:43:30;1.33;;;1.23;;
6354;SDS011;3210;48.708;9.030;2022-12-28T07:46:01;2.03;;;1.80;;
6354;SDS011;3210;48.708;9.030;2022-12-28T07:48:29;3.20;;;1.53;;
6354;SDS011;3210;48.708;9.030;2022-12-28T07:51:03;4.43;;;1.67;;
6354;SDS011;3210;48.708;9.030;2022-12-28T07:53:31;4.70;;;1.70;;
6354;SDS011;3210;48.708;9.030;2022-12-28T07:55:58;1.87;;;1.77;;
6354;SDS011;3210;48.708;9.030;2022-12-28T07:58:25;1.73;;;1.57;;
6354;SDS011;3210;48.708;9.030;2022-12-28T08:00:52;2.87;;;1.70;;
6354;SDS011;3210;48.708;9.030;2022-12-28T08:03:19;3.63;;;1.80;;
6354;SDS011;3210;48.708;9.030;2022-12-28T08:05:45;1.90;;;1.60;;
6354;SDS011;3210;48.708;9.030;2022-12-28T08:08:14;1.63;;;1.50;;
6354;SDS011;3210;48.708;9.030;2022-12-28T08:10:40;1.60;;;1.40;;
6354;SDS011;3210;48.708;9.030;2022-12-28T08:13:07;3.27;;;2.37;;
6354;SDS011;3210;48.708;9.030;2022-12-28T08:15:34;2.03;;;1.73;;
6354;SDS011;3210;48.708;9.030;2022-12-28T08:18:01;2.13;;;1.70;;
6354;SDS011;3210;48.708;9.030;2022-12-28T08:20:27;2.93;;;1.63;;
6354;SDS011;3210;48.708;9.030;2022-12-28T08:22:56;3.40;;;1.60;;
6354;SDS011;3210;48.708;9.030;2022-12-28T08:25:24;3.40;;;1.13;;
6354;SDS011;3210;48.708;9.030;2022-12-28T08:27:50;8.40;;;4.10;;
6354;SDS011;3210;48.708;9.030;2022-12-28T08:30:17;5.20;;;2.43;;
6354;SDS011;3210;48.708;9.030;2022-12-28T08:32:44;8.87;;;4.60;;
6354;SDS011;3210;48.708;9.030;2022-12-28T08:35:11;2.00;;;1.80;;
6354;SDS011;3210;48.708;9.030;2022-12-28T08:37:38;6.20;;;1.87;;
6354;SDS011;3210;48.708;9.030;2022-12-28T08:40:05;2.30;;;1.77;;
6354;SDS011;3210;48.708;9.030;2022-12-28T08:42:34;2.97;;;1.90;;
6354;SDS011;3210;48.708;9.030;2022-12-28T08:45:00;1.30;;;1.20;;
6354;SDS011;3210;48.708;9.030;2022-12-28T08:47:27;3.03;;;1.17;;
6354;SDS011;3210;48.708;9.030;2022-12-28T08:49:54;1.57;;;1.10;;
6354;SDS011;3210;48.708;9.030;2022-12-28T08:52:20;1.67;;;1.00;;
6354;SDS011;3210;48.708;9.030;2022-12-28T08:54:48;2.97;;;1.40;;
6354;SDS011;3210;48.708;9.030;2022-12-28T08:57:15;3.20;;;1.27;;
6354;SDS011;3210;48.708;9.030;2022-12-28T08:59:43;1.47;;;1.37;;
6354;SDS011;3210;48.708;9.030;2022-12-28T09:02:11;4.90;;;2.73;;
6354;SDS011;3210;48.708;9.030;2022-12-28T09:04:38;4.60;;;2.23;;
6354;SDS011;3210;48.708;9.030;2022-12-28T09:07:06;1.67;;;1.50;;
6354;SDS011;3210;48.708;9.030;2022-12-28T09:09:32;1.63;;;1.33;;
6354;SDS011;3210;48.708;9.030;2022-12-28T09:11:59;1.40;;;1.10;;
6354;SDS011;3210;48.708;9.030;2022-12-28T09:14:26;1.10;;;0.80;;
6354;SDS011;3210;48.708;9.030;2022-12-28T09:16:54;11.13;;;6.00;;
6354;SDS011;3210;48.708;9.030;2022-12-28T09:19:21;1.10;;;0.77;;
6354;SDS011;3210;48.708;9.030;2022-12-28T09:21:49;3.60;;;1.43;;
6354;SDS011;3210;48.708;9.030;2022-12-28T09:24:17;2.30;;;1.03;;
6354;SDS011;3210;48.708;9.030;2022-12-28T09:26:44;1.00;;;0.83;;
6354;SDS011;3210;48.708;9.030;2022-12-28T09:29:11;6.67;;;2.10;;
6354;SDS011;3210;48.708;9.030;2022-12-28T09:31:39;7.50;;;3.60;;
6354;SDS011;3210;48.708;9.030;2022-12-28T09:34:10;6.47;;;1.20;;
6354;SDS011;3210;48.708;9.030;2022-12-28T09:36:38;4.80;;;1.60;;
6354;SDS011;3210;48.708;9.030;2022-12-28T09:39:06;2.07;;;1.30;;
6354;SDS011;3210;48.708;9.030;2022-12-28T09:41:37;2.37;;;1.40;;
6354;SDS011;3210;48.708;9.030;2022-12-28T09:44:26;1.83;;;1.57;;
6354;SDS011;3210;48.708;9.030;2022-12-28T09:47:12;2.80;;;0.90;;
6354;SDS011;3210;48.708;9.030;2022-12-28T09:49:59;1.57;;;1.40;;
6354;SDS011;3210;48.708;9.030;2022-12-28T09:52:49;1.63;;;0.93;;
6354;SDS011;3210;48.708;9.030;2022-12-28T09:55:24;1.50;;;1.00;;
6354;SDS011;3210;48.708;9.030;2022-12-28T09:57:54;1.43;;;1.17;;
6354;SDS011;3210;48.708;9.030;2022-12-28T10:00:23;2.80;;;1.30;;
6354;SDS011;3210;48.708;9.030;2022-12-28T10:02:53;1.40;;;1.00;;
6354;SDS011;3210;48.708;9.030;2022-12-28T10:05:25;1.70;;;1.23;;
6354;SDS011;3210;48.708;9.030;2022-12-28T10:07:52;2.03;;;1.07;;
6354;SDS011;3210;48.708;9.030;2022-12-28T10:10:22;3.43;;;1.00;;
6354;SDS011;3210;48.708;9.030;2022-12-28T10:12:49;2.13;;;0.70;;
6354;SDS011;3210;48.708;9.030;2022-12-28T10:15:17;3.60;;;1.77;;
6354;SDS011;3210;48.708;9.030;2022-12-28T10:17:44;1.47;;;0.83;;
6354;SDS011;3210;48.708;9.030;2022-12-28T10:20:15;7.93;;;1.00;;
6354;SDS011;3210;48.708;9.030;2022-12-28T10:22:46;1.00;;;0.90;;
6354;SDS011;3210;48.708;9.030;2022-12-28T10:25:16;2.47;;;0.97;;
6354;SDS011;3210;48.708;9.030;2022-12-28T10:27:45;2.80;;;0.90;;
6354;SDS011;3210;48.708;9.030;2022-12-28T10:30:15;0.80;;;0.70;;
6354;SDS011;3210;48.708;9.030;2022-12-28T10:32:47;1.13;;;1.03;;
6354;SDS011;3210;48.708;9.030;2022-12-28T10:35:23;1.77;;;0.80;;
6354;SDS011;3210;48.708;9.030;2022-12-28T10:37:53;2.57;;;1.23;;
6354;SDS011;3210;48.708;9.030;2022-12-28T10:40:26;1.00;;;0.60;;
6354;SDS011;3210;48.708;9.030;2022-12-28T10:42:55;2.20;;;1.20;;
6354;SDS011;3210;48.708;9.030;2022-12-28T10:45:26;1.30;;;0.90;;
6354;SDS011;3210;48.708;9.030;2022-12-28T10:47:59;0.90;;;0.73;;
6354;SDS011;3210;48.708;9.030;2022-12-28T10:50:37;0.80;;;0.70;;
6354;SDS011;3210;48.708;9.030;2022-12-28T10:53:15;2.90;;;0.90;;
6354;SDS011;3210;48.708;9.030;2022-12-28T10:55:59;0.90;;;0.70;;
6354;SDS011;3210;48.708;9.030;2022-12-28T10:58:27;3.27;;;0.77;;
6354;SDS011;3210;48.708;9.030;2022-12-28T11:00:55;1.83;;;0.90;;
6354;SDS011;3210;48.708;9.030;2022-12-28T11:03:24;1.20;;;0.87;;
6354;SDS011;3210;48.708;9.030;2022-12-28T11:06:06;2.10;;;1.30;;
6354;SDS011;3210;48.708;9.030;2022-12-28T11:08:40;0.80;;;0.70;;
6354;SDS011;3210;48.708;9.030;2022-12-28T11:11:15;5.60;;;0.93;;
6354;SDS011;3210;48.708;9.030;2022-12-28T11:13:46;5.17;;;1.10;;
6354;SDS011;3210;48.708;9.030;2022-12-28T11:16:17;1.77;;;0.90;;
6354;SDS011;3210;48.708;9.030;2022-12-28T11:18:44;2.40;;;0.87;;
6354;SDS011;3210;48.708;9.030;2022-12-28T11:21:12;2.00;;;1.00;;
6354;SDS011;3210;48.708;9.030;2022-12-28T11:23:44;1.80;;;0.90;;
6354;SDS011;3210;48.708;9.030;2022-12-28T11:26:12;1.70;;;0.97;;
6354;SDS011;3210;48.708;9.030;2022-12-28T11:28:40;1.40;;;1.10;;
6354;SDS011;3210;48.708;9.030;2022-12-28T11:31:11;2.50;;;0.80;;
6354;SDS011;3210;48.708;9.030;2022-12-28T11:33:45;1.83;;;1.50;;
6354;SDS011;3210;48.708;9.030;2022-12-28T11:36:15;1.20;;;1.10;;
6354;SDS011;3210;48.708;9.030;2022-12-28T11:38:46;1.33;;;0.83;;
6354;SDS011;3210;48.708;9.030;2022-12-28T11:44:18;6.37;;;1.30;;
6354;SDS011;3210;48.708;9.030;2022-12-28T11:46:57;4.63;;;1.20;;
6354;SDS011;3210;48.708;9.030;2022-12-28T11:49:28;2.80;;;0.87;;
6354;SDS011;3210;48.708;9.030;2022-12-28T12:01:00;2.40;;;0.87;;
6354;SDS011;3210;48.708;9.030;2022-12-28T12:09:48;1.43;;;0.90;;
6354;SDS011;3210;48.708;9.030;2022-12-28T12:12:34;3.30;;;1.00;;
6354;SDS011;3210;48.708;9.030;2022-12-28T12:15:07;3.43;;;2.20;;
6354;SDS011;3210;48.708;9.030;2022-12-28T12:17:39;0.83;;;0.70;;
6354;SDS011;3210;48.708;9.030;2022-12-28T12:20:15;1.30;;;0.80;;
6354;SDS011;3210;48.708;9.030;2022-12-28T12:22:47;1.30;;;0.73;;
6354;SDS011;3210;48.708;9.030;2022-12-28T12:25:17;1.20;;;0.77;;
6354;SDS011;3210;48.708;9.030;2022-12-28T12:27:52;3.40;;;1.07;;
6354;SDS011;3210;48.708;9.030;2022-12-28T12:30:21;2.30;;;0.80;;
6354;SDS011;3210;48.708;9.030;2022-12-28T12:32:51;1.27;;;0.60;;
6354;SDS011;3210;48.708;9.030;2022-12-28T12:35:20;2.50;;;0.57;;
6354;SDS011;3210;48.708;9.030;2022-12-28T12:37:49;1.30;;;0.83;;
6354;SDS011;3210;48.708;9.030;2022-12-28T12:40:27;3.07;;;2.43;;
6354;SDS011;3210;48.708;9.030;2022-12-28T12:43:25;1.57;;;1.40;;
6354;SDS011;3210;48.708;9.030;2022-12-28T12:46:05;1.33;;;0.90;;
6354;SDS011;3210;48.708;9.030;2022-12-28T12:51:44;1.53;;;1.40;;
6354;SDS011;3210;48.708;9.030;2022-12-28T12:54:24;1.20;;;1.00;;
6354;SDS011;3210;48.708;9.030;2022-12-28T12:57:01;2.40;;;1.13;;
6354;SDS011;3210;48.708;9.030;2022-12-28T12:59:40;1.70;;;0.97;;
6354;SDS011;3210;48.708;9.030;2022-12-28T13:05:18;1.93;;;1.10;;
6354;SDS011;3210;48.708;9.030;2022-12-28T13:07:46;4.83;;;1.90;;
6354;SDS011;3210;48.708;9.030;2022-12-28T13:10:15;1.53;;;1.00;;
6354;SDS011;3210;48.708;9.030;2022-12-28T13:12:46;1.53;;;0.93;;
6354;SDS011;3210;48.708;9.030;2022-12-28T13:15:16;1.83;;;1.10;;
6354;SDS011;3210;48.708;9.030;2022-12-28T13:18:00;1.20;;;1.10;;
6354;SDS011;3210;48.708;9.030;2022-12-28T13:20:28;3.60;;;0.77;;
6354;SDS011;3210;48.708;9.030;2022-12-28T13:22:56;1.23;;;1.10;;
6354;SDS011;3210;48.708;9.030;2022-12-28T13:25:23;2.13;;;1.53;;
6354;SDS011;3210;48.708;9.030;2022-12-28T13:27:51;3.93;;;1.63;;
6354;SDS011;3210;48.708;9.030;2022-12-28T13:30:20;4.03;;;1.40;;
6354;SDS011;3210;48.708;9.030;2022-12-28T13:32:49;4.10;;;1.03;;
6354;SDS011;3210;48.708;9.030;2022-12-28T13:35:17;7.30;;;1.77;;
6354;SDS011;3210;48.708;9.030;2022-12-28T13:37:57;1.50;;;1.10;;
6354;SDS011;3210;48.708;9.030;2022-12-28T13:40:26;2.50;;;1.13;;
6354;SDS011;3210;48.708;9.030;2022-12-28T13:42:55;2.70;;;1.50;;
6354;SDS011;3210;48.708;9.030;2022-12-28T13:45:43;6.10;;;1.63;;
6354;SDS011;3210;48.708;9.030;2022-12-28T13:48:12;2.17;;;1.30;;
6354;SDS011;3210;48.708;9.030;2022-12-28T13:50:38;2.50;;;1.60;;
6354;SDS011;3210;48.708;9.030;2022-12-28T13:53:08;2.97;;;2.30;;
6354;SDS011;3210;48.708;9.030;2022-12-28T13:55:39;2.00;;;1.50;;
6354;SDS011;3210;48.708;9.030;2022-12-28T13:58:10;5.53;;;1.10;;
6354;SDS011;3210;48.708;9.030;2022-12-28T14:00:41;2.90;;;1.40;;
6354;SDS011;3210;48.708;9.030;2022-12-28T14:03:12;2.70;;;0.90;;
6354;SDS011;3210;48.708;9.030;2022-12-28T14:05:40;2.30;;;1.07;;
6354;SDS011;3210;48.708;9.030;2022-12-28T14:08:08;4.67;;;1.47;;
6354;SDS011;3210;48.708;9.030;2022-12-28T14:10:35;1.27;;;1.17;;
6354;SDS011;3210;48.708;9.030;2022-12-28T14:13:03;3.43;;;1.80;;
6354;SDS011;3210;48.708;9.030;2022-12-28T14:15:30;2.30;;;1.53;;
6354;SDS011;3210;48.708;9.030;2022-12-28T14:17:58;3.93;;;1.53;;
6354;SDS011;3210;48.708;9.030;2022-12-28T14:20:26;1.40;;;0.90;;
6354;SDS011;3210;48.708;9.030;2022-12-28T14:22:53;3.80;;;1.77;;
6354;SDS011;3210;48.708;9.030;2022-12-28T14:25:20;2.97;;;1.30;;
6354;SDS011;3210;48.708;9.030;2022-12-28T14:27:53;1.43;;;1.27;;
6354;SDS011;3210;48.708;9.030;2022-12-28T14:30:23;1.20;;;0.83;;
6354;SDS011;3210;48.708;9.030;2022-12-28T14:32:52;4.80;;;0.70;;
6354;SDS011;3210;48.708;9.030;2022-12-28T14:35:22;1.70;;;1.00;;
6354;SDS011;3210;48.708;9.030;2022-12-28T14:37:51;4.20;;;1.27;;
6354;SDS011;3210;48.708;9.030;2022-12-28T14:40:27;2.80;;;1.10;;
6354;SDS011;3210;48.708;9.030;2022-12-28T14:42:55;1.57;;;1.00;;
6354;SDS011;3210;48.708;9.030;2022-12-28T14:45:33;2.10;;;1.57;;
6354;SDS011;3210;48.708;9.030;2022-12-28T14:48:18;2.10;;;1.27;;
6354;SDS011;3210;48.708;9.030;2022-12-28T14:50:56;6.20;;;1.50;;
6354;SDS011;3210;48.708;9.030;2022-12-28T14:53:24;1.63;;;1.30;;
6354;SDS011;3210;48.708;9.030;2022-12-28T14:55:55;3.57;;;1.37;;
6354;SDS011;3210;48.708;9.030;2022-12-28T14:58:26;1.93;;;1.40;;
6354;SDS011;3210;48.708;9.030;2022-12-28T15:00:56;2.40;;;1.40;;
6354;SDS011;3210;48.708;9.030;2022-12-28T15:03:24;2.03;;;1.80;;
6354;SDS011;3210;48.708;9.030;2022-12-28T15:05:53;1.53;;;1.27;;
6354;SDS011;3210;48.708;9.030;2022-12-28T15:08:23;2.70;;;0.97;;
6354;SDS011;3210;48.708;9.030;2022-12-28T15:10:52;2.20;;;1.07;;
6354;SDS011;3210;48.708;9.030;2022-12-28T15:13:20;1.67;;;1.07;;
6354;SDS011;3210;48.708;9.030;2022-12-28T15:15:52;1.57;;;1.47;;
6354;SDS011;3210;48.708;9.030;2022-12-28T15:18:20;1.13;;;1.03;;
6354;SDS011;3210;48.708;9.030;2022-12-28T15:20:47;2.80;;;1.20;;
6354;SDS011;3210;48.708;9.030;2022-12-28T15:23:16;1.70;;;1.60;;
6354;SDS011;3210;48.708;9.030;2022-12-28T15:25:43;7.40;;;1.70;;
6354;SDS011;3210;48.708;9.030;2022-12-28T15:28:10;1.50;;;1.40;;
6354;SDS011;3210;48.708;9.030;2022-12-28T15:30:38;3.40;;;1.80;;
6354;SDS011;3210;48.708;9.030;2022-12-28T15:33:05;1.73;;;1.63;;
6354;SDS011;3210;48.708;9.030;2022-12-28T15:35:32;1.53;;;1.10;;
6354;SDS011;3210;48.708;9.030;2022-12-28T15:37:59;4.90;;;2.30;;
6354;SDS011;3210;48.708;9.030;2022-12-28T15:40:27;3.63;;;2.03;;
6354;SDS011;3210;48.708;9.030;2022-12-28T15:42:54;7.77;;;3.60;;
6354;SDS011;3210;48.708;9.030;2022-12-28T15:45:21;6.67;;;2.37;;
6354;SDS011;3210;48.708;9.030;2022-12-28T15:47:48;6.50;;;2.60;;
6354;SDS011;3210;48.708;9.030;2022-12-28T15:50:18;1.77;;;1.67;;
6354;SDS011;3210;48.708;9.030;2022-12-28T15:52:45;1.70;;;1.60;;
6354;SDS011;3210;48.708;9.030;2022-12-28T15:55:11;1.83;;;1.57;;
6354;SDS011;3210;48.708;9.030;2022-12-28T15:57:39;4.93;;;2.40;;
6354;SDS011;3210;48.708;9.030;2022-12-28T16:00:07;2.47;;;2.30;;
6354;SDS011;3210;48.708;9.030;2022-12-28T16:02:35;3.00;;;2.70;;